• Join FlightAware (Why Join?)
  • Login
  • US Flag 
09:09PM EST


 

Airport Tracker/Info


-or-


 

Live Flight TrackerFlight Track Log ✈ SWA2236 ✈ 16-Jul-2013 ✈ KABQ - KOAK

Flight Track Log - Related Links

Times and Time Zones

All times are in EDT time to prevent confusion due to time zone crossing. See the SWA2236 flight status page for this flight to view local times or setup timezone preferences in your user account.

Time Position Orientation Groundspeed Altitude Reporting Facility
EDT Latitude Longitude Course Direction KTS MPH feet Rate Location/Type
09:20AM 35.0497 -106.5181 83° East 212 244 8,200  Level Albuquerque Center
09:21AM 35.0719 -106.5017 31° Northeast 257 296 9,000 1,260 Climbing Albuquerque Center
09:21AM 35.0983 -106.5392 311° West 259 298 9,500 1,140 Climbing Albuquerque Center
09:22AM 35.0997 -106.5722 273° West 267 307 10,200 2,160 Climbing Albuquerque Center
09:23AM 35.1031 -106.6831 272° West 306 352 12,900 3,000 Climbing Albuquerque Center
09:24AM 35.1086 -106.8267 273° West 352 405 16,400 3,000 Climbing Albuquerque Center
09:25AM 35.1106 -106.9658 271° West 386 444 19,000 2,280 Climbing Albuquerque Center
09:26AM 35.1153 -107.0853 273° West 401 461 21,100 2,160 Climbing Albuquerque Center
09:27AM 35.1322 -107.2258 278° West 418 481 23,400 2,100 Climbing Albuquerque Center
09:28AM 35.1572 -107.3675 282° West 426 490 25,400 2,040 Climbing Albuquerque Center
09:29AM 35.1806 -107.5425 279° West 436 502 27,600 1,800 Climbing Albuquerque Center
09:30AM 35.2006 -107.6872 280° West 445 512 29,100 1,380 Climbing Albuquerque Center
09:31AM 35.2225 -107.8353 280° West 456 525 30,500 1,860 Climbing Albuquerque Center
09:32AM 35.2344 -108.0111 275° West 464 534 32,900 2,100 Climbing Albuquerque Center
09:33AM 35.2086 -108.1572 258° West 457 526 34,800 1,500 Climbing Albuquerque Center
09:34AM 35.1817 -108.3019 257° West 455 524 36,000 660 Climbing Albuquerque Center
09:35AM 35.1517 -108.4658 257° West 446 513 36,200 720 Climbing Albuquerque Center
09:36AM 35.1258 -108.6064 257° West 443 510 37,500 1,260 Climbing Albuquerque Center
09:37AM 35.1161 -108.7481 265° West 440 506 38,800 1,200 Climbing Albuquerque Center
09:38AM 35.1450 -108.9061 283° West 428 493 40,000 540 Climbing Albuquerque Center
09:39AM 35.1681 -109.0417 282° West 425 489 40,000  Level Albuquerque Center
09:40AM 35.1906 -109.1775 281° West 425 489 40,000  Level Albuquerque Center
09:41AM 35.2167 -109.3350 282° West 423 487 40,000  Level Albuquerque Center
09:42AM 35.2386 -109.4697 281° West 421 484 40,000  Level Albuquerque Center
09:43AM 35.2614 -109.6036 282° West 420 483 40,000  Level Albuquerque Center
09:44AM 35.2867 -109.7614 281° West 421 484 40,000  Level Albuquerque Center
09:45AM 35.3081 -109.8986 281° West 425 489 40,000  Level Albuquerque Center
09:46AM 35.3294 -110.0331 281° West 423 487 40,000  Level Albuquerque Center
09:47AM 35.3531 -110.1925 280° West 424 488 40,000  Level Albuquerque Center
09:48AM 35.3742 -110.3294 281° West 426 490 40,000  Level Albuquerque Center
09:49AM 35.3944 -110.4658 280° West 426 490 40,000  Level Albuquerque Center
09:50AM 35.4197 -110.6242 281° West 425 489 40,000  Level Albuquerque Center
09:51AM 35.4403 -110.7600 281° West 424 488 40,000  Level Albuquerque Center
09:52AM 35.4647 -110.9197 281° West 425 489 40,000  Level Albuquerque Center
09:53AM 35.4861 -111.0550 281° West 424 488 40,000  Level Albuquerque Center
09:54AM 35.5053 -111.1908 280° West 422 486 40,000  Level Albuquerque Center
09:55AM 35.5294 -111.3508 281° West 426 490 40,000  Level Albuquerque Center
09:56AM 35.5486 -111.4747 281° West 430 495 40,000  Level Albuquerque Center
09:57AM 35.5739 -111.6472 280° West 432 497 40,000  Level Albuquerque Center
09:58AM 35.5944 -111.7889 280° West 427 491 40,000  Level Albuquerque Center
09:59AM 35.6103 -111.9028 280° West 426 490 40,000  Level Los Angeles Center
10:00AM 35.6353 -112.0742 280° West 428 493 40,000  Level Los Angeles Center
10:01AM 35.6550 -112.2175 280° West 430 495 40,000  Level Los Angeles Center
10:02AM 35.6758 -112.3606 280° West 430 495 40,000  Level Los Angeles Center
10:03AM 35.6958 -112.5042 280° West 430 495 40,000  Level Los Angeles Center
10:05AM 35.7150 -112.6481 279° West 432 497 40,000  Level Los Angeles Center
10:06AM 35.7386 -112.8192 280° West 430 495 40,000  Level Los Angeles Center
10:07AM 35.7583 -112.9622 280° West 430 495 40,000  Level Los Angeles Center
10:08AM 35.7775 -113.1061 279° West 431 496 40,000  Level Los Angeles Center
10:09AM 35.7958 -113.2511 279° West 434 499 40,000  Level Los Angeles Center
10:10AM 35.8144 -113.3961 279° West 434 499 40,000  Level Los Angeles Center
10:11AM 35.8372 -113.5689 279° West 431 496 40,000  Level Los Angeles Center
10:12AM 35.8558 -113.7156 279° West 428 493 40,000  Level Los Angeles Center
10:13AM 35.8742 -113.8639 279° West 437 503 40,000  Level Los Angeles Center
10:14AM 35.8925 -114.0086 279° West 431 496 40,000  Level Los Angeles Center
10:15AM 35.9103 -114.1553 279° West 430 495 40,000  Level Los Angeles Center
10:16AM 35.9269 -114.3019 278° West 432 497 40,000  Level Los Angeles Center
10:17AM 35.9461 -114.4489 279° West 432 497 40,000  Level Los Angeles Center
10:18AM 35.9669 -114.6256 278° West 432 497 40,000  Level Los Angeles Center
10:19AM 35.9847 -114.7742 278° West 436 502 40,000  Level Los Angeles Center
10:20AM 36.0189 -114.9203 286° West 444 511 40,000  Level Los Angeles Center
10:21AM 36.0803 -115.0564 299° West 453 521 40,000  Level Los Angeles Center
10:22AM 36.1400 -115.1936 298° West 452 520 40,000  Level Los Angeles Center
10:23AM 36.1994 -115.3286 299° West 449 517 40,000  Level Los Angeles Center
10:24AM 36.2594 -115.4664 298° West 453 521 40,000  Level Los Angeles Center
10:25AM 36.3267 -115.6242 298° West 455 524 40,000  Level Los Angeles Center
10:26AM 36.3831 -115.7589 298° West 458 527 40,000  Level Los Angeles Center
10:27AM 36.4436 -115.8992 298° West 450 518 40,000  Level Los Angeles Center
10:28AM 36.5025 -116.0369 298° West 450 518 40,000  Level Los Angeles Center
10:29AM 36.5731 -116.2031 298° West 451 519 40,000  Level Los Angeles Center
10:30AM 36.6311 -116.3422 297° West 452 520 40,000  Level Los Angeles Center
10:31AM 36.6900 -116.4833 298° West 456 525 40,000  Level Los Angeles Center
10:32AM 36.7489 -116.6247 297° West 458 527 40,000  Level Los Angeles Center
10:33AM 36.8192 -116.7583 303° West 463 533 40,000  Level Los Angeles Center
10:34AM 36.9272 -116.8536 325° Northwest 474 545 40,000  Level Los Angeles Center
10:35AM 37.0378 -116.9472 326° Northwest 478 550 40,000  Level Los Angeles Center
10:36AM 37.1686 -117.0633 325° Northwest 479 551 40,000  Level Los Angeles Center
10:38AM 37.2122 -117.2089 291° West 449 517 40,000  Level Los Angeles Center
10:39AM 37.2428 -117.3600 284° West 445 512 40,000  Level Los Angeles Center
10:40AM 37.2739 -117.5106 285° West 444 511 40,000  Level Los Angeles Center
10:41AM 37.3044 -117.6592 285° West 440 506 40,000  Level Los Angeles Center
10:42AM 37.3333 -117.8078 284° West 437 503 40,000  Level Los Angeles Center
10:43AM 37.3633 -117.9569 284° West 438 504 40,000  Level Los Angeles Center
10:44AM 37.3986 -118.1331 284° West 434 499 40,000  Level Los Angeles Center
10:45AM 37.4233 -118.2617 284° West 435 501 40,000 -60 Level Los Angeles Center
10:46AM 37.4525 -118.4081 284° West 434 499 39,900 -540 Descending Los Angeles Center
10:47AM 37.4853 -118.5747 284° West 431 496 38,900 -1,020 Descending Los Angeles Center
10:48AM 37.5125 -118.7214 283° West 430 495 37,900 -960 Descending Los Angeles Center
10:49AM 37.5417 -118.8711 284° West 436 502 37,000 -840 Descending Los Angeles Center
10:50AM 37.5772 -119.0758 282° West 438 504 36,000 -480 Descending Oakland Center
10:51AM 37.6061 -119.2319 283° West 438 504 36,000  Level Oakland Center
10:52AM 37.6336 -119.3797 283° West 434 499 36,000  Level Oakland Center
10:53AM 37.6619 -119.5283 284° West 435 501 36,000  Level Oakland Center
10:54AM 37.6889 -119.6800 283° West 440 506 36,000  Level Oakland Center
10:55AM 37.7164 -119.8258 283° West 431 496 36,000 -1,380 Level Oakland Center
10:56AM 37.7344 -120.0017 277° West 417 480 33,200 -2,520 Descending Oakland Center
10:57AM 37.7278 -120.1483 267° West 415 478 30,900 -2,220 Descending Oakland Center
10:58AM 37.7214 -120.2897 267° West 404 465 28,800 -2,100 Descending Oakland Center
10:59AM 37.7147 -120.4256 266° West 391 450 26,700 -2,040 Descending Oakland Center
11:00AM 37.7086 -120.5567 267° West 375 432 24,700 -1,920 Descending Oakland Center
11:01AM 37.7028 -120.6850 267° West 365 420 22,800 -1,920 Descending Oakland Center
11:02AM 37.6972 -120.8083 267° West 355 409 20,900 -1,860 Descending Oakland Center
11:04AM 37.6911 -120.9297 266° West 348 400 19,100 -1,860 Descending Oakland Center
11:05AM 37.6839 -121.0500 266° West 344 396 17,200 -1,920 Descending Oakland Center
11:06AM 37.6781 -121.1689 266° West 339 390 15,200 -1,920 Descending Oakland Center
11:07AM 37.6719 -121.2842 266° West 331 381 13,400 -1,800 Descending Oakland Center
11:08AM 37.6653 -121.3958 266° West 321 369 11,600 -1,620 Descending Oakland Center
11:09AM 37.6589 -121.5194 266° West 312 359 10,100 -1,320 Descending Oakland Center
11:10AM 37.6525 -121.6156 265° West 283 326 9,000 -1,260 Descending Oakland Center
11:11AM 37.6433 -121.7081 263° West 270 311 7,600 -1,080 Descending Oakland Center
11:12AM 37.6131 -121.7900 245° Southwest 259 298 6,900 -840 Descending Oakland Center
11:13AM 37.5878 -121.8647 247° West 241 277 5,900 -840 Descending Oakland Center
11:14AM 37.5642 -121.9356 247° West 226 260 5,200 -840 Descending Oakland Center
11:15AM 37.5667 -122.0000 273° West 190 219 4,300 -1,080 Descending Northern Cal TRACON
11:16AM 37.5833 -122.0500 293° West 187 215 3,300 -960 Descending Northern Cal TRACON
11:17AM 37.6167 -122.0833 322° Northwest 165 190 2,500 -900 Descending Northern Cal TRACON
11:17AM 37.6500 -122.1333 310° West 154 177 1,700 -840 Descending Northern Cal TRACON
11:18AM 37.6667 -122.1667 302° West 136 157 1,000 -780 Descending Northern Cal TRACON
11:19AM 37.6833 -122.2000 302° West 131 151 300 -780 Descending Northern Cal TRACON
11:22AM 37.7167 -122.2167 270° West  Level FlightAware Approximate